Brainerd, Minnesota
Current Conditions -  °F | °C
As of 5:53 PM on Saturday 25 Oct 2014 (Local Time) from KBRD Reporting Station
Clear Clear  
Wind Chill: 55°   Ceiling: Unl
Heat Index: 55°   Visibility: 10mi
Dew Point: 23°   Wind: 13mph
Humidity: 29%   Direction: 310°NW
Pressure: 30.04"   Gusts: NA
Location:  46.35°N, 94.2°W
Report Text: KBRD 252253Z AUTO 31011KT 10SM CLR 13/M05 A3004 RMK AO2 SLP178 T01281050
Loading
Personal Weather Stations






























Interactive Weather Map New forecast layout! Learn more

10-Day Weather Forecast

Advertisements
Track Severe Weather on mobile